createdAt,value
2022-08-04T03:25:36.263Z,1.00
2022-08-04T03:26:36.248Z,1.00
2022-08-04T03:27:36.237Z,1.00
2022-08-04T03:28:36.228Z,1.00
2022-08-04T03:35:36.156Z,2.00
2022-08-04T03:36:36.145Z,2.00
2022-08-04T03:42:03.074Z,2.00
2022-08-04T03:42:37.101Z,1.00
2022-08-04T03:43:57.113Z,5.00
2022-08-04T03:44:37.082Z,7.00
2022-08-04T03:45:36.055Z,13.00
2022-08-04T03:46:36.043Z,5.00
2022-08-04T03:47:36.027Z,4.00
2022-08-04T03:48:37.039Z,4.00
2022-08-04T03:49:36.012Z,17.00
2022-08-04T03:50:40.957Z,7.00
2022-08-04T03:51:36.510Z,16.00
2022-08-04T03:52:35.977Z,12.00
2022-08-04T03:53:35.967Z,19.00
2022-08-04T03:54:35.959Z,28.00
2022-08-04T03:55:35.947Z,36.00
2022-08-04T03:56:35.949Z,41.00
2022-08-04T03:57:35.932Z,44.00
2022-08-04T03:58:35.915Z,50.00
2022-08-04T03:59:35.912Z,62.00
2022-08-04T04:00:35.894Z,69.00
2022-08-04T04:02:01.231Z,84.00
2022-08-04T04:02:36.965Z,94.00
2022-08-04T04:03:35.863Z,123.00
2022-08-04T04:04:35.852Z,129.00
2022-08-04T04:05:43.176Z,154.00
2022-08-04T04:06:38.498Z,179.00
2022-08-04T04:07:36.772Z,207.00
2022-08-04T04:08:35.810Z,230.00
2022-08-04T04:09:57.641Z,257.00
2022-08-04T04:10:35.790Z,285.00
2022-08-04T04:11:35.778Z,309.00
2022-08-04T04:12:36.790Z,354.00
2022-08-04T04:13:35.755Z,393.00
2022-08-04T04:14:35.746Z,434.00
2022-08-04T04:15:35.833Z,467.00
2022-08-04T04:16:35.726Z,508.00
2022-08-04T04:17:35.714Z,548.00
2022-08-04T04:18:35.704Z,581.00
2022-08-04T04:19:35.697Z,629.00
2022-08-04T04:20:35.682Z,665.00
2022-08-04T04:21:35.676Z,721.00
2022-08-04T04:22:38.504Z,772.00
2022-08-04T04:23:35.653Z,806.00
2022-08-04T04:24:35.642Z,857.00
2022-08-04T04:25:35.635Z,904.00
2022-08-04T04:26:35.620Z,959.00
2022-08-04T04:27:35.611Z,1006.00
2022-08-04T04:28:46.598Z,1064.00
2022-08-04T04:29:35.591Z,1115.00
2022-08-04T04:30:35.581Z,1167.00
2022-08-04T04:31:35.571Z,1227.00
2022-08-04T04:32:35.556Z,1282.00
2022-08-04T04:33:35.552Z,1344.00
2022-08-04T04:34:35.539Z,1395.00
2022-08-04T04:35:35.530Z,1466.00
2022-08-04T04:36:35.520Z,1521.00
2022-08-04T04:37:35.506Z,1583.00
2022-08-04T04:38:35.495Z,1647.00
2022-08-04T04:39:35.568Z,1713.00
2022-08-04T04:40:35.479Z,1783.00
2022-08-04T04:41:35.462Z,1840.00
2022-08-04T04:42:35.459Z,1906.00
2022-08-04T04:43:52.244Z,1980.00
2022-08-04T04:44:36.452Z,2041.00
2022-08-04T04:45:35.422Z,2106.00
2022-08-04T04:46:35.416Z,2171.00
2022-08-04T04:48:06.963Z,2247.00
2022-08-04T04:48:35.391Z,2302.00
2022-08-04T04:49:35.382Z,2373.00
2022-08-04T04:50:36.998Z,2455.00
2022-08-04T04:51:35.359Z,2502.00
2022-08-04T04:52:35.352Z,2555.00
2022-08-04T04:53:35.342Z,2608.00
2022-08-04T04:54:35.330Z,2680.00
2022-08-04T04:55:35.320Z,2752.00
2022-08-04T04:56:35.339Z,2810.00
2022-08-04T04:57:54.789Z,2867.00
2022-08-04T04:58:35.289Z,2928.00
2022-08-04T04:59:35.478Z,2994.00
2022-08-04T05:00:35.272Z,3062.00
2022-08-04T05:01:35.261Z,3134.00
2022-08-04T05:02:35.251Z,3203.00
2022-08-04T05:03:35.239Z,3259.00
2022-08-04T05:04:35.230Z,3333.00
2022-08-04T05:05:35.219Z,3396.00
2022-08-04T05:06:35.213Z,3464.00
2022-08-04T05:07:35.349Z,3530.00
2022-08-04T05:08:45.027Z,3596.00
2022-08-04T05:09:36.200Z,3661.00
2022-08-04T05:10:35.171Z,3713.00
2022-08-04T05:11:35.158Z,3761.00
2022-08-04T05:14:30.717Z,3795.00
2022-08-04T05:14:38.678Z,3853.00
2022-08-04T05:14:41.618Z,3915.00
2022-08-04T05:15:35.220Z,3962.00
2022-08-04T05:16:35.108Z,4020.00
2022-08-04T05:17:35.099Z,4075.00
2022-08-04T05:18:35.090Z,4133.00
2022-08-04T05:19:35.083Z,4193.00
2022-08-04T05:20:35.168Z,4242.00
2022-08-04T05:21:35.057Z,4293.00
2022-08-04T05:22:35.052Z,4331.00
2022-08-04T05:23:35.041Z,4399.00
2022-08-04T05:24:35.315Z,4450.00
2022-08-04T05:25:35.017Z,4503.00
2022-08-04T05:26:35.009Z,4552.00
2022-08-04T05:27:39.449Z,4593.00
2022-08-04T05:28:34.986Z,4642.00
2022-08-04T05:29:35.125Z,4693.00
2022-08-04T05:30:34.968Z,4741.00
2022-08-04T05:31:34.957Z,4782.00
2022-08-04T05:32:34.944Z,4826.00
2022-08-04T05:33:35.039Z,4866.00
2022-08-04T05:34:34.922Z,4909.00
2022-08-04T05:35:47.837Z,4953.00
2022-08-04T05:36:41.465Z,4991.00
2022-08-04T05:37:35.914Z,5041.00
2022-08-04T05:38:34.883Z,5083.00
2022-08-04T05:39:34.906Z,5124.00
2022-08-04T05:40:34.867Z,5159.00
2022-08-04T05:41:45.791Z,5190.00
2022-08-04T05:42:35.864Z,5216.00
2022-08-04T05:43:34.829Z,5258.00
2022-08-04T05:44:34.869Z,5297.00
2022-08-04T05:45:39.499Z,5349.00
2022-08-04T05:46:34.798Z,5386.00
2022-08-04T05:47:34.939Z,5425.00
2022-08-04T05:48:34.778Z,5467.00
2022-08-04T05:49:34.765Z,5511.00
2022-08-04T05:50:34.758Z,5546.00
2022-08-04T05:51:34.743Z,5648.00
2022-08-04T05:52:34.740Z,5771.00
2022-08-04T05:53:34.726Z,5794.00
2022-08-04T05:54:34.714Z,5839.00
2022-08-04T05:55:58.433Z,5832.00
2022-08-04T05:56:34.696Z,5851.00
2022-08-04T05:57:34.683Z,5957.00
2022-08-04T05:58:34.677Z,6055.00
2022-08-04T05:59:34.663Z,6117.00
2022-08-04T06:00:41.375Z,6177.00
2022-08-04T06:01:56.069Z,6232.00
2022-08-04T06:02:34.634Z,6222.00
2022-08-04T06:03:34.620Z,6190.00
2022-08-04T06:04:34.614Z,6225.00
2022-08-04T06:05:34.600Z,6345.00
2022-08-04T06:06:34.593Z,6457.00
2022-08-04T06:07:34.587Z,6425.00
2022-08-04T06:08:34.773Z,6474.00
2022-08-04T06:09:34.566Z,6480.00
2022-08-04T06:10:34.549Z,6509.00
2022-08-04T06:12:00.699Z,6591.00
2022-08-04T06:12:35.553Z,6671.00
2022-08-04T06:13:48.456Z,6733.00
2022-08-04T06:14:34.713Z,6712.00
2022-08-04T06:15:34.499Z,6750.00
2022-08-04T06:16:34.590Z,6784.00
2022-08-04T06:19:57.269Z,6806.00
2022-08-04T06:19:59.087Z,6802.00
2022-08-04T06:20:03.737Z,6820.00
2022-08-04T06:20:35.470Z,6870.00
2022-08-04T06:21:34.442Z,6889.00
2022-08-04T06:22:34.432Z,6912.00
2022-08-04T06:23:34.421Z,7025.00
2022-08-04T06:24:35.431Z,7104.00
2022-08-04T06:25:34.400Z,7137.00
2022-08-04T06:26:34.393Z,7093.00
2022-08-04T06:27:34.378Z,7053.00
2022-08-04T06:28:35.217Z,7040.00
2022-08-04T06:29:34.460Z,7064.00
2022-08-04T06:30:34.347Z,7079.00
2022-08-04T06:32:27.056Z,7126.00
2022-08-04T06:32:38.744Z,7193.00
2022-08-04T06:33:54.743Z,7223.00
2022-08-04T06:34:35.326Z,7197.00
2022-08-04T06:35:34.463Z,7215.00
2022-08-04T06:36:34.289Z,7215.00
2022-08-04T06:37:42.111Z,7219.00
2022-08-04T06:38:35.287Z,7229.00
2022-08-04T06:39:34.327Z,7270.00
2022-08-04T06:40:34.814Z,7352.00
2022-08-04T06:41:34.238Z,7344.00
2022-08-04T06:42:34.226Z,7301.00
2022-08-04T06:43:42.961Z,7300.00
2022-08-04T06:44:34.207Z,7310.00
2022-08-04T06:45:34.237Z,7417.00
2022-08-04T06:46:34.184Z,7346.00
2022-08-04T06:47:34.173Z,7229.00
2022-08-04T06:48:34.165Z,7248.00
2022-08-04T06:49:44.179Z,7260.00
2022-08-04T06:51:32.823Z,7353.00
2022-08-04T06:51:39.115Z,7401.00
2022-08-04T06:52:35.143Z,7471.00
2022-08-04T06:53:34.110Z,7564.00
2022-08-04T06:54:34.104Z,7732.00
2022-08-04T06:55:34.091Z,7879.00
2022-08-04T06:56:34.083Z,8069.00
2022-08-04T06:57:34.072Z,8203.00
2022-08-04T06:58:34.062Z,8278.00
2022-08-04T06:59:34.050Z,8316.00
2022-08-04T07:00:34.042Z,8367.00
2022-08-04T07:01:34.128Z,8409.00
2022-08-04T07:02:34.024Z,8448.00
2022-08-04T07:03:34.013Z,8471.00
2022-08-04T07:04:34.004Z,8510.00
2022-08-04T07:05:33.988Z,8548.00
2022-08-04T07:06:33.980Z,8603.00
2022-08-04T07:07:37.172Z,8641.00
2022-08-04T07:08:34.980Z,8710.00
2022-08-04T07:09:33.952Z,8748.00
2022-08-04T07:10:33.941Z,8774.00
2022-08-04T07:11:39.206Z,8823.00
2022-08-04T07:12:34.941Z,8863.00
2022-08-04T07:13:33.914Z,8890.00
2022-08-04T07:14:33.901Z,8916.00
2022-08-04T07:15:33.900Z,8950.00
2022-08-04T07:16:33.880Z,8974.00
2022-08-04T07:17:34.808Z,9020.00
2022-08-04T07:18:33.866Z,9046.00
2022-08-04T07:19:33.855Z,9070.00
2022-08-04T07:20:36.119Z,9105.00
2022-08-04T07:21:33.833Z,9128.00
2022-08-04T07:22:33.828Z,9159.00
2022-08-04T07:23:33.813Z,9200.00
2022-08-04T07:24:33.799Z,9273.00
2022-08-04T07:26:00.644Z,9304.00
2022-08-04T07:26:34.801Z,9303.00
2022-08-04T07:27:48.235Z,9303.00
2022-08-04T07:28:34.782Z,9431.00
2022-08-04T07:29:33.746Z,9458.00
2022-08-04T07:30:33.739Z,9504.00
2022-08-04T07:31:35.886Z,9552.00
2022-08-04T07:32:33.718Z,9583.00
2022-08-04T07:33:33.706Z,9648.00
2022-08-04T07:34:33.701Z,9714.00
2022-08-04T07:36:09.080Z,9775.00
2022-08-04T07:36:42.001Z,9829.00
2022-08-04T07:37:39.309Z,9909.00
2022-08-04T07:38:37.671Z,10021.00
2022-08-04T07:39:48.014Z,10124.00
2022-08-04T07:40:34.658Z,10211.00
2022-08-04T07:41:37.176Z,10286.00
2022-08-04T07:42:33.623Z,10403.00
2022-08-04T07:43:33.609Z,10490.00
2022-08-04T07:44:33.600Z,10562.00
2022-08-04T07:45:33.590Z,10675.00
2022-08-04T07:46:33.581Z,10712.00
2022-08-04T07:47:33.571Z,10882.00
2022-08-04T07:48:33.562Z,11016.00
2022-08-04T07:49:55.293Z,11194.00
2022-08-04T07:50:33.541Z,11416.00
2022-08-04T07:51:33.529Z,11858.00
2022-08-04T07:52:38.144Z,12403.00
2022-08-04T07:53:53.280Z,12644.00
2022-08-04T07:54:33.499Z,12819.00
2022-08-04T07:55:33.488Z,12717.00
2022-08-04T07:56:33.478Z,13492.00
2022-08-04T07:57:41.287Z,13684.00
2022-08-04T07:58:34.484Z,13022.00
2022-08-04T07:59:33.448Z,13756.00
2022-08-04T08:00:33.439Z,13555.00
2022-08-04T08:01:33.429Z,14892.00
2022-08-04T08:02:33.419Z,13309.00
2022-08-04T08:03:33.479Z,14141.00
2022-08-04T08:04:33.400Z,12910.00
2022-08-04T08:05:33.391Z,12804.00
2022-08-04T08:06:36.493Z,12696.00
2022-08-04T08:07:33.370Z,12562.00
2022-08-04T08:08:33.363Z,12608.00
2022-08-04T08:09:33.354Z,12621.00
2022-08-04T08:10:33.342Z,12206.00
2022-08-04T08:12:35.966Z,12104.00
2022-08-04T08:12:50.612Z,12185.00
2022-08-04T08:13:34.338Z,12137.00
2022-08-04T08:14:33.336Z,13127.00
2022-08-04T08:15:33.296Z,12120.00
2022-08-04T08:16:33.286Z,11963.00
2022-08-04T08:17:33.276Z,14121.00
2022-08-04T08:18:33.266Z,12122.00
2022-08-04T08:19:33.256Z,14417.00
2022-08-04T08:20:33.376Z,12166.00
2022-08-04T08:21:33.233Z,13520.00
2022-08-04T08:22:33.225Z,14420.00
2022-08-04T08:23:33.212Z,14538.00
2022-08-04T08:24:33.205Z,14844.00
2022-08-04T08:25:33.200Z,15007.00
2022-08-04T08:26:33.183Z,15045.00
2022-08-04T08:27:33.173Z,15068.00
2022-08-04T08:28:33.167Z,14759.00
2022-08-04T08:29:33.154Z,14675.00
2022-08-04T08:30:33.145Z,14679.00
2022-08-04T08:31:58.349Z,14710.00
2022-08-04T08:32:34.147Z,14721.00
2022-08-04T08:33:33.116Z,14893.00
2022-08-04T08:34:33.106Z,15290.00
2022-08-04T08:35:33.097Z,15318.00
2022-08-04T08:36:34.126Z,15180.00
2022-08-04T08:37:33.082Z,15157.00
2022-08-04T08:38:33.068Z,15386.00
2022-08-04T08:39:33.145Z,15637.00
2022-08-04T08:40:40.994Z,15594.00
2022-08-04T08:41:34.060Z,15524.00
2022-08-04T08:42:33.030Z,15587.00
2022-08-04T08:44:06.271Z,15466.00
2022-08-04T08:44:37.598Z,15339.00
2022-08-04T08:45:33.005Z,15747.00
2022-08-04T08:46:48.342Z,16177.00
2022-08-04T08:48:06.375Z,16039.00
2022-08-04T08:48:32.973Z,16109.00
2022-08-04T08:50:01.194Z,16144.00
2022-08-04T08:50:33.975Z,15971.00
2022-08-04T08:51:32.943Z,15874.00
2022-08-04T08:52:57.323Z,15980.00
2022-08-04T08:53:32.930Z,15972.00
2022-08-04T08:54:32.916Z,15734.00
2022-08-04T08:55:32.912Z,15686.00
2022-08-04T08:56:32.997Z,15386.00
2022-08-04T08:57:32.885Z,14886.00
2022-08-04T08:58:32.876Z,14601.00
2022-08-04T08:59:32.869Z,14442.00
2022-08-04T09:00:32.881Z,14388.00
2022-08-04T09:01:32.906Z,14382.00
2022-08-04T09:02:32.836Z,14397.00
2022-08-04T09:03:32.832Z,14187.00
2022-08-04T09:04:32.819Z,14437.00
2022-08-04T09:05:32.813Z,14509.00
2022-08-04T09:06:32.804Z,14485.00
2022-08-04T09:07:32.797Z,14440.00
2022-08-04T09:08:32.784Z,14327.00
2022-08-04T09:09:32.773Z,14237.00
2022-08-04T09:10:33.625Z,14215.00
2022-08-04T09:11:32.756Z,14216.00
2022-08-04T09:12:32.754Z,14255.00
2022-08-04T09:13:32.733Z,14299.00
2022-08-04T09:14:32.730Z,14347.00
2022-08-04T09:15:32.720Z,14387.00
2022-08-04T09:16:32.705Z,14412.00
2022-08-04T09:17:32.699Z,14442.00
2022-08-04T09:18:32.689Z,14456.00
2022-08-04T09:19:38.623Z,14418.00
2022-08-04T09:20:32.684Z,14489.00
2022-08-04T09:21:32.679Z,14535.00
2022-08-04T09:22:32.661Z,14575.00
2022-08-04T09:23:32.643Z,14588.00
2022-08-04T09:24:36.322Z,14625.00
2022-08-04T09:25:32.625Z,14646.00
2022-08-04T09:26:32.616Z,14720.00
2022-08-04T09:27:32.608Z,14769.00
2022-08-04T09:28:52.844Z,14861.00
2022-08-04T09:29:32.589Z,14927.00
2022-08-04T09:30:32.581Z,14996.00
2022-08-04T09:31:48.769Z,15033.00
2022-08-04T09:32:32.560Z,15055.00
2022-08-04T09:33:45.712Z,15100.00
2022-08-04T09:34:33.566Z,15136.00
2022-08-04T09:35:32.532Z,15180.00
2022-08-04T09:36:32.532Z,15239.00
2022-08-04T09:37:32.516Z,15294.00
2022-08-04T09:38:33.536Z,15349.00
2022-08-04T09:39:32.601Z,15387.00
2022-08-04T09:40:53.916Z,15410.00
2022-08-04T09:41:48.053Z,15441.00
2022-08-04T09:42:33.495Z,15484.00
2022-08-04T09:43:59.403Z,15533.00
2022-08-04T09:44:50.975Z,15610.00
2022-08-04T09:45:43.293Z,15713.00
2022-08-04T09:46:34.408Z,15767.00
2022-08-04T09:47:40.211Z,15863.00
2022-08-04T09:48:32.419Z,15989.00
2022-08-04T09:49:32.409Z,16042.00
2022-08-04T09:50:32.397Z,16137.00
2022-08-04T09:51:58.207Z,16223.00
2022-08-04T09:52:32.379Z,16330.00
2022-08-04T09:53:32.373Z,16404.00
2022-08-04T09:54:32.364Z,16446.00
2022-08-04T09:55:32.355Z,16548.00
2022-08-04T09:56:32.347Z,16621.00
2022-08-04T09:57:32.338Z,16676.00
2022-08-04T09:58:32.329Z,16787.00
2022-08-04T09:59:32.318Z,16874.00
2022-08-04T10:00:38.470Z,16960.00
2022-08-04T10:01:33.328Z,17015.00
2022-08-04T10:02:32.377Z,17048.00
2022-08-04T10:03:32.346Z,17109.00
2022-08-04T10:04:32.278Z,17237.00
2022-08-04T10:05:32.268Z,17329.00
2022-08-04T10:06:32.256Z,17403.00
2022-08-04T10:07:32.247Z,17461.00
2022-08-04T10:08:32.239Z,17522.00
2022-08-04T10:09:32.231Z,17587.00
2022-08-04T10:10:32.224Z,17671.00
2022-08-04T10:11:32.214Z,17815.00
2022-08-04T10:12:32.211Z,17927.00
2022-08-04T10:13:32.194Z,18006.00
2022-08-04T10:14:32.188Z,18091.00
2022-08-04T10:15:32.178Z,18164.00
2022-08-04T10:16:32.169Z,18232.00
2022-08-04T10:17:32.160Z,18284.00
2022-08-04T10:18:32.152Z,18344.00
2022-08-04T10:19:32.144Z,18422.00
2022-08-04T10:20:36.503Z,18524.00
2022-08-04T10:21:33.145Z,18541.00
2022-08-04T10:22:37.259Z,18694.00
2022-08-04T10:23:32.106Z,18749.00
2022-08-04T10:24:33.120Z,18812.00
2022-08-04T10:26:03.538Z,18926.00
2022-08-04T10:26:33.102Z,19058.00
2022-08-04T10:27:32.078Z,19328.00
2022-08-04T10:28:32.067Z,19306.00
2022-08-04T10:29:32.062Z,19444.00
2022-08-04T10:30:32.053Z,19618.00
2022-08-04T10:31:32.045Z,19787.00
2022-08-04T10:32:32.034Z,20017.00
2022-08-04T10:33:32.021Z,20237.00
2022-08-04T10:34:32.016Z,20689.00
2022-08-04T10:35:32.007Z,21089.00
2022-08-04T10:36:31.999Z,21901.00
2022-08-04T10:37:59.430Z,24940.00
2022-08-04T10:38:33.016Z,28541.00
2022-08-04T10:39:42.831Z,28418.00
2022-08-04T10:40:32.987Z,27281.00
2022-08-04T10:41:31.962Z,27047.00
2022-08-04T10:42:31.949Z,28189.00
2022-08-04T10:43:31.938Z,30147.00
2022-08-04T10:44:33.270Z,31114.00
2022-08-04T10:45:32.944Z,33495.00
2022-08-04T10:46:31.916Z,33273.00
2022-08-04T10:47:31.903Z,33010.00
2022-08-04T10:48:34.576Z,33647.00
2022-08-04T10:49:31.890Z,33576.00
2022-08-04T10:50:31.878Z,32448.00
2022-08-04T10:51:31.871Z,31761.00
2022-08-04T10:52:32.882Z,30657.00
2022-08-04T10:53:31.851Z,29201.00
2022-08-04T10:54:31.846Z,28257.00
2022-08-04T10:56:07.922Z,27852.00
2022-08-04T10:56:31.822Z,27689.00
2022-08-04T10:57:32.516Z,27520.00
2022-08-04T10:58:48.228Z,27366.00
2022-08-04T10:59:32.821Z,27591.00
2022-08-04T11:00:31.792Z,27528.00
2022-08-04T11:01:59.439Z,27623.00
2022-08-04T11:02:32.844Z,28493.00
2022-08-04T11:03:31.766Z,29355.00
2022-08-04T11:04:31.758Z,29427.00
2022-08-04T11:05:31.749Z,30088.00
2022-08-04T11:06:31.737Z,30413.00
2022-08-04T11:07:31.728Z,30299.00
2022-08-04T11:08:31.724Z,29664.00
2022-08-04T11:09:31.711Z,29728.00
2022-08-04T11:10:31.703Z,29721.00
2022-08-04T11:11:31.697Z,30553.00
2022-08-04T11:12:32.710Z,30609.00
2022-08-04T11:13:31.678Z,31196.00
2022-08-04T11:14:31.686Z,32002.00
2022-08-04T11:15:31.757Z,31641.00
2022-08-04T11:16:31.653Z,30807.00
2022-08-04T11:17:31.641Z,31380.00
2022-08-04T11:18:31.634Z,32258.00
2022-08-04T11:19:45.143Z,33177.00
2022-08-04T11:20:35.010Z,32831.00
2022-08-04T11:21:31.605Z,34553.00
2022-08-04T11:22:31.597Z,35222.00
2022-08-04T11:23:31.589Z,34878.00
2022-08-04T11:24:31.577Z,34174.00
2022-08-04T11:25:31.575Z,32863.00
2022-08-04T11:26:31.562Z,32248.00
2022-08-04T11:27:31.556Z,31384.00
2022-08-04T11:28:32.764Z,31997.00
2022-08-04T11:29:31.534Z,33803.00
2022-08-04T11:30:31.528Z,32752.00
2022-08-04T11:31:31.515Z,31852.00
2022-08-04T11:32:31.509Z,33908.00
2022-08-04T11:33:31.506Z,34326.00
2022-08-04T11:34:31.489Z,33678.00
2022-08-04T11:35:31.482Z,34221.00
2022-08-04T11:36:31.477Z,33040.00
2022-08-04T11:37:31.465Z,32838.00
2022-08-04T11:38:32.380Z,33582.00
2022-08-04T11:39:31.487Z,34021.00
2022-08-04T11:40:31.440Z,33979.00
2022-08-04T11:41:31.431Z,35043.00
2022-08-04T11:42:31.425Z,34674.00
2022-08-04T11:43:56.268Z,35664.00
2022-08-04T11:44:32.479Z,35587.00
2022-08-04T11:45:31.402Z,35812.00
2022-08-04T11:46:31.445Z,36808.00
2022-08-04T11:47:31.383Z,38110.00
2022-08-04T11:48:31.375Z,37314.00
2022-08-04T11:49:31.367Z,37095.00
2022-08-04T11:50:32.376Z,38272.00
2022-08-04T11:51:31.352Z,36512.00
2022-08-04T11:52:31.345Z,38641.00
2022-08-04T11:53:36.613Z,38763.00
2022-08-04T11:54:31.326Z,37108.00
2022-08-04T11:55:31.317Z,35653.00
2022-08-04T11:56:37.242Z,38445.00
2022-08-04T11:57:35.741Z,37085.00
2022-08-04T11:58:31.295Z,39816.00
2022-08-04T11:59:31.286Z,40206.00
2022-08-04T12:00:31.284Z,38091.00
2022-08-04T12:01:31.267Z,39401.00
2022-08-04T12:02:31.332Z,38482.00
2022-08-04T12:03:31.254Z,40662.00
2022-08-04T12:04:32.267Z,39730.00
2022-08-04T12:05:35.687Z,38962.00
2022-08-04T12:06:32.253Z,40713.00
2022-08-04T12:07:32.463Z,39701.00
2022-08-04T12:08:31.216Z,42578.00
2022-08-04T12:09:31.208Z,40427.00
2022-08-04T12:10:41.485Z,39654.00
2022-08-04T12:11:31.187Z,42194.00
2022-08-04T12:12:31.183Z,38760.00
2022-08-04T12:13:31.172Z,43719.00
2022-08-04T12:14:31.170Z,40332.00
2022-08-04T12:15:31.159Z,41642.00
2022-08-04T12:16:31.159Z,42072.00
2022-08-04T12:17:31.158Z,43891.00
2022-08-04T12:18:32.227Z,43940.00
2022-08-04T12:19:45.225Z,41241.00
2022-08-04T12:20:40.748Z,45524.00
2022-08-04T12:21:32.170Z,49550.00
2022-08-04T12:22:31.544Z,40274.00
2022-08-04T12:23:31.096Z,45721.00
2022-08-04T12:24:31.093Z,47930.00
2022-08-04T12:25:31.079Z,45840.00
2022-08-04T12:26:31.069Z,45673.00
2022-08-04T12:27:31.073Z,46168.00
2022-08-04T12:28:46.387Z,49205.00
2022-08-04T12:29:32.066Z,47233.00
2022-08-04T12:30:58.336Z,44797.00
2022-08-04T12:31:31.033Z,51678.00
2022-08-04T12:32:31.019Z,50538.00
2022-08-04T12:34:02.717Z,45573.00
2022-08-04T12:34:32.032Z,52071.00
2022-08-04T12:35:30.997Z,49337.00
2022-08-04T12:36:30.990Z,47740.00
2022-08-04T12:37:30.983Z,52213.00
2022-08-04T12:38:30.975Z,50014.00
2022-08-04T12:39:30.992Z,51390.00
2022-08-04T12:40:31.482Z,54515.00
2022-08-04T12:41:30.951Z,54050.00
2022-08-04T12:42:30.949Z,50716.00
2022-08-04T12:43:30.937Z,53554.00
2022-08-04T12:44:36.656Z,58539.00
2022-08-04T12:45:30.918Z,55101.00
2022-08-04T12:46:30.912Z,56659.00
2022-08-04T12:47:30.905Z,48439.00
2022-08-04T12:48:30.893Z,44507.00
2022-08-04T12:49:30.889Z,53948.00
2022-08-04T12:50:30.883Z,53770.00
2022-08-04T12:52:07.689Z,59389.00
2022-08-04T12:52:59.194Z,50305.00
2022-08-04T12:53:32.654Z,53120.00
2022-08-04T12:54:31.079Z,55515.00
2022-08-04T12:55:30.840Z,49977.00
2022-08-04T12:56:30.837Z,50220.00
2022-08-04T12:57:30.828Z,56724.00
2022-08-04T12:58:43.367Z,55426.00
2022-08-04T12:59:31.836Z,52115.00
2022-08-04T13:00:34.242Z,58015.00
2022-08-04T13:02:08.382Z,60255.00
2022-08-04T13:02:31.934Z,56929.00
2022-08-04T13:03:30.783Z,54253.00
2022-08-04T13:04:30.777Z,55683.00
2022-08-04T13:05:30.773Z,55449.00
2022-08-04T13:31:17.389Z,60993.00
2022-08-04T13:31:18.804Z,60816.00
2022-08-04T13:39:36.711Z,66269.00
2022-08-04T13:39:38.219Z,66271.00
2022-08-04T13:40:38.165Z,55704.00
2022-08-04T13:41:38.156Z,61692.00
2022-08-04T13:42:38.151Z,58212.00
2022-08-04T13:44:16.395Z,54408.00
2022-08-04T13:46:16.350Z,56388.00
2022-08-04T13:46:28.236Z,54396.00
2022-08-04T14:07:05.851Z,52888.00
2022-08-04T14:07:20.572Z,52569.00
2022-08-04T14:08:13.228Z,55401.00
2022-08-04T15:46:44.826Z,40996.00
2022-08-04T15:46:46.517Z,39427.00
2022-08-04T15:47:49.938Z,45863.00
2022-08-04T15:54:58.287Z,47048.00
2022-08-04T15:55:00.006Z,46831.00
2022-08-04T15:55:59.996Z,43039.00
2022-08-04T16:00:24.733Z,43467.00
2022-08-04T16:00:26.104Z,43493.00
2022-08-04T16:01:26.133Z,49076.00
2022-08-04T16:02:26.592Z,43956.00
2022-08-04T16:03:57.776Z,43921.00
2022-08-04T16:04:27.090Z,52703.00
2022-08-04T16:05:26.064Z,44074.00
2022-08-04T16:06:29.245Z,47009.00
2022-08-04T16:13:08.681Z,46805.00
2022-08-04T16:13:10.262Z,46696.00
2022-08-04T16:14:10.117Z,41130.00
2022-08-04T16:15:10.077Z,41269.00
2022-08-04T16:16:36.365Z,50574.00
2022-08-04T16:17:10.064Z,41455.00
2022-08-04T16:18:14.522Z,43800.00
2022-08-04T16:19:11.063Z,44570.00
2022-08-04T16:20:10.041Z,43227.00
2022-08-04T16:21:10.031Z,45326.00
2022-08-04T16:22:10.027Z,43424.00
2022-08-04T16:23:10.016Z,46045.00
2022-08-04T16:24:10.013Z,46199.00
2022-08-04T16:25:10.006Z,42402.00
2022-08-04T16:26:09.994Z,35565.00
2022-08-04T16:27:09.986Z,42816.00
2022-08-04T16:28:09.984Z,38505.00
2022-08-04T16:29:09.977Z,41373.00
2022-08-04T16:30:14.100Z,38614.00
2022-08-04T16:31:09.961Z,48266.00
2022-08-04T16:32:09.952Z,43766.00
2022-08-04T16:33:09.944Z,37344.00
2022-08-04T16:34:47.738Z,37659.00
2022-08-04T16:35:09.930Z,39904.00
2022-08-04T16:36:10.534Z,40293.00
2022-08-04T16:37:09.912Z,40142.00
2022-08-04T16:38:09.907Z,36751.00
2022-08-04T16:39:09.939Z,36920.00
2022-08-04T16:40:09.889Z,35518.00
2022-08-04T16:41:09.881Z,35361.00
2022-08-04T16:42:09.870Z,33828.00
2022-08-04T16:43:09.879Z,31446.00
2022-08-04T16:44:09.853Z,35928.00
2022-08-04T16:45:09.847Z,29589.00
2022-08-04T16:46:18.675Z,33779.00
2022-08-04T16:47:22.070Z,32560.00
2022-08-04T16:48:10.851Z,27592.00
2022-08-04T16:49:09.818Z,31651.00
2022-08-04T16:50:09.809Z,32001.00
2022-08-04T16:51:10.047Z,31993.00
2022-08-04T16:52:13.677Z,30231.00
2022-08-04T16:53:09.783Z,32170.00
2022-08-04T16:54:09.773Z,27853.00
2022-08-04T16:55:09.769Z,28568.00
2022-08-04T16:56:09.761Z,33038.00
2022-08-04T16:57:09.750Z,27625.00
2022-08-04T16:58:09.743Z,26597.00
2022-08-04T16:59:10.025Z,27082.00
2022-08-04T17:00:09.726Z,25577.00
2022-08-04T17:01:09.892Z,22075.00
2022-08-04T17:02:09.886Z,25250.00
2022-08-04T17:03:09.701Z,20869.00
2022-08-04T17:04:09.695Z,22927.00
2022-08-04T17:05:09.689Z,23764.00
2022-08-04T17:06:09.678Z,19421.00
2022-08-04T17:07:09.673Z,21182.00
2022-08-04T17:08:30.457Z,20083.00
2022-08-04T17:09:10.681Z,19644.00
2022-08-04T17:10:09.650Z,19407.00
2022-08-04T17:11:09.640Z,18924.00
2022-08-04T17:12:09.631Z,17156.00
2022-08-04T17:14:03.348Z,13837.00
2022-08-04T17:14:10.634Z,18666.00
2022-08-04T17:15:09.606Z,19057.00
2022-08-04T17:16:13.657Z,15002.00
2022-08-04T17:17:10.605Z,12863.00
2022-08-04T17:18:09.579Z,15085.00
2022-08-04T17:19:23.688Z,14004.00
2022-08-04T17:20:10.581Z,13893.00
2022-08-04T17:21:09.553Z,13600.00
2022-08-04T17:22:10.333Z,13109.00
2022-08-04T17:23:09.535Z,13229.00
2022-08-04T17:24:16.401Z,10000.00
2022-08-04T17:25:10.539Z,11725.00
2022-08-04T17:26:09.508Z,11324.00
2022-08-04T17:28:09.157Z,9636.00
2022-08-04T17:28:24.730Z,10038.00
2022-08-04T17:29:09.508Z,11527.00
2022-08-04T17:30:09.473Z,10716.00
2022-08-04T17:31:09.462Z,9688.00
2022-08-04T17:32:09.467Z,11076.00
2022-08-04T17:33:09.446Z,7884.00
2022-08-04T17:34:14.139Z,9362.00
2022-08-04T17:35:10.450Z,9396.00
2022-08-04T17:36:09.418Z,8536.00
2022-08-04T17:37:31.501Z,8207.00
2022-08-04T17:38:09.402Z,8139.00
2022-08-04T17:39:12.312Z,7558.00
2022-08-04T17:41:18.108Z,7325.00
2022-08-04T17:42:10.387Z,7510.00
2022-08-04T17:44:03.468Z,7350.00
2022-08-04T17:44:09.345Z,7377.00
2022-08-04T17:45:39.594Z,6814.00
2022-08-04T17:46:09.331Z,6621.00
2022-08-04T17:47:12.506Z,6574.00
2022-08-04T17:48:09.620Z,6506.00
2022-08-04T17:49:09.301Z,6229.00
2022-08-04T17:50:11.604Z,5576.00
2022-08-04T17:51:09.285Z,5311.00
2022-08-04T17:52:18.051Z,4995.00
2022-08-04T17:53:12.274Z,4742.00
2022-08-04T17:54:09.267Z,4280.00
2022-08-04T17:55:16.263Z,3620.00
2022-08-04T17:56:10.257Z,3273.00
2022-08-04T17:57:09.228Z,3280.00
2022-08-04T17:58:13.280Z,2951.00
2022-08-04T17:59:09.210Z,2787.00
2022-08-04T18:00:09.204Z,2685.00
2022-08-04T18:01:24.128Z,2630.00
2022-08-04T18:02:10.206Z,2630.00
2022-08-04T18:03:09.271Z,2406.00
2022-08-04T18:04:09.163Z,2096.00
2022-08-04T18:05:11.518Z,2613.00
2022-08-04T18:06:09.149Z,2113.00
2022-08-04T18:07:24.467Z,2421.00
2022-08-04T18:08:45.775Z,2113.00
2022-08-04T18:09:22.937Z,1976.00
2022-08-04T18:10:27.687Z,2386.00